createdAt,value
2022-11-04T00:00:10.634Z,100148.70
2022-11-04T00:02:57.241Z,100141.14
2022-11-04T00:05:23.692Z,100136.59
2022-11-04T00:08:08.878Z,100137.46
2022-11-04T00:10:54.018Z,100143.23
2022-11-04T00:13:20.467Z,100146.02
2022-11-04T00:16:05.499Z,100144.29
2022-11-04T00:18:31.876Z,100144.72
2022-11-04T00:21:17.059Z,100139.95
2022-11-04T00:24:02.274Z,100138.42
2022-11-04T00:26:47.350Z,100136.77
2022-11-04T00:29:13.737Z,100132.61
2022-11-04T00:31:58.861Z,100125.82
2022-11-04T00:34:25.293Z,100121.95
2022-11-04T00:36:51.583Z,100117.14
2022-11-04T00:39:18.052Z,100116.01
2022-11-04T00:41:44.476Z,100115.93
2022-11-04T00:44:10.824Z,100116.00
2022-11-04T00:46:37.257Z,100114.27
2022-11-04T00:49:03.746Z,100111.14
2022-11-04T00:51:30.263Z,100112.98
2022-11-04T00:53:57.576Z,100108.05
2022-11-04T00:56:24.083Z,100106.23
2022-11-04T00:58:50.535Z,100098.70
2022-11-04T01:01:17.896Z,100096.05
2022-11-04T01:03:46.530Z,100088.42
2022-11-04T01:06:13.017Z,100085.66
2022-11-04T01:08:40.024Z,100079.38
2022-11-04T01:11:08.778Z,100073.59
2022-11-04T01:13:36.065Z,100069.61
2022-11-04T01:16:06.135Z,100068.18
2022-11-04T01:18:32.665Z,100062.98
2022-11-04T01:21:03.641Z,100065.77
2022-11-04T01:23:30.685Z,100066.13
2022-11-04T01:25:57.144Z,100057.78
2022-11-04T01:28:23.541Z,100048.70
2022-11-04T01:30:49.870Z,100047.52
2022-11-04T01:33:16.249Z,100049.87
2022-11-04T01:35:42.599Z,100048.05
2022-11-04T01:38:09.345Z,100047.22
2022-11-04T01:40:40.352Z,100050.17
2022-11-04T01:43:16.170Z,100052.96
2022-11-04T01:45:50.144Z,100050.64
2022-11-04T01:48:23.829Z,100047.24
2022-11-04T01:50:53.335Z,100044.86
2022-11-04T01:53:30.803Z,100040.83
2022-11-04T01:56:00.229Z,100039.55
2022-11-04T01:58:31.550Z,100036.05
2022-11-04T02:00:58.023Z,100035.92
2022-11-04T02:03:38.317Z,100030.80
2022-11-04T02:06:06.336Z,100026.88
2022-11-04T02:08:33.669Z,100022.76
2022-11-04T02:11:02.347Z,100015.33
2022-11-04T02:13:32.596Z,100010.25
2022-11-04T02:16:02.080Z,100008.14
2022-11-04T02:18:43.842Z,100007.27
2022-11-04T02:21:29.193Z,100003.66
2022-11-04T02:24:04.411Z,99999.40
2022-11-04T02:26:58.574Z,99995.77
2022-11-04T02:29:49.896Z,99996.69
2022-11-04T02:32:26.659Z,99998.36
2022-11-04T02:35:04.301Z,100004.77
2022-11-04T02:40:45.281Z,99997.80
2022-11-04T02:43:30.101Z,99995.76
2022-11-04T02:46:06.496Z,99996.61
2022-11-04T02:48:45.419Z,99995.17
2022-11-04T02:51:24.897Z,99988.27
2022-11-04T02:54:02.621Z,99983.40
2022-11-04T02:56:30.723Z,99982.19
2022-11-04T02:59:03.203Z,99973.61
2022-11-04T03:01:36.096Z,99965.71
2022-11-04T03:04:13.167Z,99964.10
2022-11-04T03:06:41.963Z,99967.38
2022-11-04T03:09:11.068Z,99963.09
2022-11-04T03:11:40.782Z,99958.74
2022-11-04T03:14:16.430Z,99960.41
2022-11-04T03:16:56.067Z,99955.10
2022-11-04T03:19:53.959Z,99952.05
2022-11-04T03:22:23.034Z,99947.41
2022-11-04T03:24:50.184Z,99945.36
2022-11-04T03:27:23.390Z,99939.54
2022-11-04T03:30:06.260Z,99940.30
2022-11-04T03:32:38.640Z,99941.43
2022-11-04T03:35:06.849Z,99942.52
2022-11-04T03:37:33.900Z,99947.06
2022-11-04T03:40:02.119Z,99944.71
2022-11-04T03:42:31.620Z,99940.66
2022-11-04T03:44:59.137Z,99936.81
2022-11-04T03:47:27.563Z,99938.93
2022-11-04T03:50:27.969Z,99946.38
2022-11-04T03:52:56.428Z,99939.91
2022-11-04T03:55:51.148Z,99939.98
2022-11-04T03:58:38.661Z,99939.34
2022-11-04T04:01:24.144Z,99940.36
2022-11-04T04:04:12.670Z,99936.15
2022-11-04T04:06:40.777Z,99932.60
2022-11-04T04:09:19.927Z,99929.04
2022-11-04T04:11:57.839Z,99929.67
2022-11-04T04:14:39.517Z,99927.34
2022-11-04T04:17:21.209Z,99926.55
2022-11-04T04:19:53.452Z,99932.76
2022-11-04T04:22:34.349Z,99940.81
2022-11-04T04:25:24.428Z,99937.57
2022-11-04T04:27:52.530Z,99933.79
2022-11-04T04:30:19.197Z,99925.83
2022-11-04T04:32:47.456Z,99929.95
2022-11-04T04:35:33.199Z,99930.02
2022-11-04T04:38:20.814Z,99927.57
2022-11-04T04:41:19.785Z,99931.14
2022-11-04T04:44:05.246Z,99928.15
2022-11-04T04:46:32.135Z,99932.83
2022-11-04T04:49:06.335Z,99929.15
2022-11-04T04:51:35.655Z,99921.50
2022-11-04T04:54:02.089Z,99919.63
2022-11-04T04:56:28.860Z,99918.09
2022-11-04T04:58:55.228Z,99918.58
2022-11-04T05:01:21.793Z,99918.40
2022-11-04T05:03:48.461Z,99921.30
2022-11-04T05:06:14.792Z,99921.23
2022-11-04T05:08:41.327Z,99917.06
2022-11-04T05:11:07.763Z,99912.73
2022-11-04T05:13:34.274Z,99909.78
2022-11-04T05:16:07.199Z,99913.20
2022-11-04T05:18:34.514Z,99912.21
2022-11-04T05:21:05.965Z,99908.68
2022-11-04T05:23:34.137Z,99903.61
2022-11-04T05:26:00.618Z,99904.16
2022-11-04T05:28:27.063Z,99904.77
2022-11-04T05:30:53.527Z,99907.80
2022-11-04T05:33:19.986Z,99904.45
2022-11-04T05:35:46.437Z,99911.30
2022-11-04T05:38:13.039Z,99906.35
2022-11-04T05:40:39.467Z,99905.56
2022-11-04T05:43:06.023Z,99901.23
2022-11-04T05:45:32.627Z,99897.05
2022-11-04T05:48:00.156Z,99889.71
2022-11-04T05:50:27.955Z,99888.76
2022-11-04T05:52:57.518Z,99887.98
2022-11-04T05:55:24.619Z,99890.13
2022-11-04T05:57:51.375Z,99891.31
2022-11-04T06:00:18.136Z,99893.77
2022-11-04T06:02:44.912Z,99897.02
2022-11-04T06:05:11.411Z,99894.16
2022-11-04T06:07:37.795Z,99898.02
2022-11-04T06:10:04.442Z,99893.71
2022-11-04T06:12:30.869Z,99890.87
2022-11-04T06:14:57.559Z,99892.27
2022-11-04T06:17:24.048Z,99892.75
2022-11-04T06:19:50.470Z,99893.31
2022-11-04T06:22:18.506Z,99896.14
2022-11-04T06:24:45.244Z,99902.17
2022-11-04T06:27:12.173Z,99904.55
2022-11-04T06:29:41.617Z,99911.77
2022-11-04T06:32:14.565Z,99917.46
2022-11-04T06:34:41.330Z,99915.80
2022-11-04T06:37:09.391Z,99915.63
2022-11-04T06:39:36.513Z,99911.73
2022-11-04T06:42:03.936Z,99908.08
2022-11-04T06:44:30.480Z,99911.60
2022-11-04T06:46:57.124Z,99904.88
2022-11-04T06:49:23.561Z,99906.04
2022-11-04T06:51:50.093Z,99907.11
2022-11-04T06:54:17.350Z,99910.64
2022-11-04T06:56:44.806Z,99915.56
2022-11-04T06:59:16.163Z,99922.00
2022-11-04T07:01:43.299Z,99918.11
2022-11-04T07:04:10.352Z,99919.01
2022-11-04T07:06:39.712Z,99919.48
2022-11-04T07:09:15.497Z,99918.36
2022-11-04T07:11:43.794Z,99918.94
2022-11-04T07:14:11.142Z,99923.50
2022-11-04T07:16:37.884Z,99928.61
2022-11-04T07:19:05.242Z,99928.76
2022-11-04T07:21:31.980Z,99930.96
2022-11-04T07:23:58.424Z,99930.84
2022-11-04T07:26:25.056Z,99933.17
2022-11-04T07:28:51.896Z,99934.02
2022-11-04T07:31:19.048Z,99928.27
2022-11-04T07:33:49.269Z,99929.27
2022-11-04T07:36:16.800Z,99934.95
2022-11-04T07:38:43.609Z,99941.53
2022-11-04T07:41:10.439Z,99936.45
2022-11-04T07:43:36.950Z,99939.93
2022-11-04T07:46:11.812Z,99940.31
2022-11-04T07:48:38.954Z,99935.05
2022-11-04T07:51:07.712Z,99934.33
2022-11-04T07:53:34.461Z,99937.21
2022-11-04T07:56:11.091Z,99930.38
2022-11-04T07:58:38.003Z,99932.16
2022-11-04T08:01:08.028Z,99928.70
2022-11-04T08:03:34.986Z,99929.52
2022-11-04T08:06:03.935Z,99926.73
2022-11-04T08:08:30.518Z,99927.69
2022-11-04T08:11:00.513Z,99922.01
2022-11-04T08:13:28.982Z,99917.02
2022-11-04T08:15:56.735Z,99918.66
2022-11-04T08:18:23.221Z,99920.66
2022-11-04T08:20:50.870Z,99922.92
2022-11-04T08:23:18.129Z,99927.90
2022-11-04T08:25:45.345Z,99928.56
2022-11-04T08:28:16.746Z,99924.91
2022-11-04T08:30:57.461Z,99928.01
2022-11-04T08:33:26.112Z,99933.01
2022-11-04T08:35:54.067Z,99936.29
2022-11-04T08:38:20.754Z,99931.72
2022-11-04T08:40:47.348Z,99929.85
2022-11-04T08:43:13.781Z,99931.38
2022-11-04T08:45:45.527Z,99923.56
2022-11-04T08:48:13.397Z,99928.61
2022-11-04T08:50:39.918Z,99926.69
2022-11-04T08:53:06.609Z,99931.65
2022-11-04T08:55:33.925Z,99933.13
2022-11-04T08:58:01.996Z,99926.58
2022-11-04T09:00:28.556Z,99921.77
2022-11-04T09:02:55.089Z,99920.32
2022-11-04T09:05:22.071Z,99917.61
2022-11-04T09:07:48.508Z,99916.45
2022-11-04T09:10:15.014Z,99914.23
2022-11-04T09:12:42.350Z,99907.25
2022-11-04T09:15:09.296Z,99905.15
2022-11-04T09:17:36.020Z,99908.86
2022-11-04T09:20:04.102Z,99910.11
2022-11-04T09:22:31.277Z,99907.55
2022-11-04T09:24:57.698Z,99901.55
2022-11-04T09:27:24.744Z,99893.89
2022-11-04T09:29:51.089Z,99890.04
2022-11-04T09:32:17.412Z,99888.33
2022-11-04T09:34:43.837Z,99888.08
2022-11-04T09:37:10.259Z,99889.13
2022-11-04T09:39:36.809Z,99887.85
2022-11-04T09:42:31.498Z,99887.21
2022-11-04T09:45:26.806Z,99887.38
2022-11-04T09:48:05.663Z,99883.50
2022-11-04T09:50:43.821Z,99877.10
2022-11-04T09:53:38.767Z,99878.31
2022-11-04T09:56:18.068Z,99876.57
2022-11-04T09:58:44.745Z,99870.10
2022-11-04T10:01:19.199Z,99866.08
2022-11-04T10:04:02.358Z,99860.50
2022-11-04T10:06:46.211Z,99852.91
2022-11-04T10:09:37.656Z,99854.21
2022-11-04T10:12:41.922Z,99851.11
2022-11-04T10:15:17.640Z,99849.70
2022-11-04T10:18:15.017Z,99851.52
2022-11-04T10:20:58.003Z,99856.01
2022-11-04T10:23:37.736Z,99857.82
2022-11-04T10:26:18.751Z,99859.61
2022-11-04T10:28:55.649Z,99852.67
2022-11-04T10:31:23.673Z,99850.60
2022-11-04T10:33:55.911Z,99857.98
2022-11-04T10:36:24.414Z,99860.42
2022-11-04T10:38:54.921Z,99857.27
2022-11-04T10:41:24.162Z,99861.43
2022-11-04T10:44:03.998Z,99855.00
2022-11-04T10:46:38.732Z,99850.88
2022-11-04T10:49:19.321Z,99841.09
2022-11-04T10:51:45.781Z,99833.84
2022-11-04T10:54:12.235Z,99831.77
2022-11-04T10:56:46.928Z,99831.56
2022-11-04T10:59:24.582Z,99839.25
2022-11-04T11:01:54.512Z,99850.02
2022-11-04T11:04:32.812Z,99849.05
2022-11-04T11:07:02.329Z,99846.66
2022-11-04T11:09:53.533Z,99843.98
2022-11-04T11:12:55.296Z,99840.96
2022-11-04T11:15:24.789Z,99836.87
2022-11-04T11:18:12.863Z,99824.92
2022-11-04T11:20:40.518Z,99821.23
2022-11-04T11:23:35.216Z,99821.16
2022-11-04T11:26:05.266Z,99823.71
2022-11-04T11:28:37.484Z,99828.29
2022-11-04T11:31:13.854Z,99835.55
2022-11-04T11:33:48.604Z,99835.48
2022-11-04T11:36:37.765Z,99825.52
2022-11-04T11:39:22.420Z,99824.41
2022-11-04T11:41:57.876Z,99821.98
2022-11-04T11:44:38.036Z,99821.00
2022-11-04T11:47:07.316Z,99812.81
2022-11-04T11:49:36.085Z,99809.49
2022-11-04T11:52:24.383Z,99807.41
2022-11-04T11:54:54.427Z,99805.63
2022-11-04T11:57:45.217Z,99800.48
2022-11-04T12:09:56.897Z,99773.14
2022-11-04T12:12:55.895Z,99781.39
2022-11-04T12:15:48.543Z,99790.11
2022-11-04T12:18:56.649Z,99790.15
2022-11-04T12:21:34.530Z,99794.35
2022-11-04T12:24:27.044Z,99797.46
2022-11-04T12:27:12.511Z,99798.25
2022-11-04T12:29:45.024Z,99804.31
2022-11-04T12:32:20.329Z,99810.31
2022-11-04T12:35:04.825Z,99808.60
2022-11-04T12:37:34.031Z,99809.77
2022-11-04T12:40:27.668Z,99806.97
2022-11-04T12:42:57.209Z,99808.83
2022-11-04T12:45:42.795Z,99809.03
2022-11-04T12:48:17.881Z,99808.27
2022-11-04T12:50:52.250Z,99803.62
2022-11-04T12:53:40.212Z,99803.72
2022-11-04T12:56:11.877Z,99805.52
2022-11-04T12:58:56.862Z,99806.45
2022-11-04T13:01:37.271Z,99810.91
2022-11-04T13:04:15.100Z,99816.42
2022-11-04T13:07:03.406Z,99817.05
2022-11-04T13:09:44.604Z,99813.85
2022-11-04T13:12:16.083Z,99811.13
2022-11-04T13:15:07.217Z,99808.74
2022-11-04T13:17:39.614Z,99806.90
2022-11-04T13:20:13.483Z,99807.67
2022-11-04T13:22:45.904Z,99802.62
2022-11-04T13:25:22.991Z,99803.11
2022-11-04T13:27:50.520Z,99803.98
2022-11-04T13:30:29.254Z,99799.23
2022-11-04T13:33:20.982Z,99797.45
2022-11-04T13:36:18.521Z,99797.73
2022-11-04T13:39:07.712Z,99808.84
2022-11-04T13:42:01.776Z,99817.02
2022-11-04T13:44:46.441Z,99814.16
2022-11-04T13:47:21.957Z,99811.33
2022-11-04T13:49:51.341Z,99809.98
2022-11-04T13:52:18.117Z,99813.74
2022-11-04T13:54:46.410Z,99815.38
2022-11-04T13:57:19.065Z,99817.52
2022-11-04T14:00:18.008Z,99817.42
2022-11-04T14:02:52.416Z,99814.02
2022-11-04T14:05:31.743Z,99813.91
2022-11-04T14:07:58.718Z,99818.60
2022-11-04T14:10:41.898Z,99816.67
2022-11-04T14:13:26.770Z,99817.94
2022-11-04T14:16:10.988Z,99820.73
2022-11-04T14:18:43.137Z,99825.02
2022-11-04T14:21:21.403Z,99825.13
2022-11-04T14:23:59.724Z,99819.85
2022-11-04T14:26:30.257Z,99815.95
2022-11-04T14:29:05.472Z,99815.09
2022-11-04T14:31:56.758Z,99815.79
2022-11-04T14:34:23.131Z,99814.61
2022-11-04T14:36:54.894Z,99809.89
2022-11-04T14:39:29.848Z,99805.86
2022-11-04T14:42:00.101Z,99806.13
2022-11-04T14:44:37.211Z,99805.00
2022-11-04T14:47:28.348Z,99809.55
2022-11-04T14:49:57.802Z,99813.23
2022-11-04T14:52:49.937Z,99816.23
2022-11-04T14:55:19.795Z,99818.61
2022-11-04T14:57:52.028Z,99819.70
2022-11-04T15:00:38.320Z,99827.30
2022-11-04T15:03:52.142Z,99826.30
2022-11-04T15:06:06.132Z,99829.11
2022-11-04T15:08:32.564Z,99830.52
2022-11-04T15:11:02.307Z,99830.26
2022-11-04T15:13:32.979Z,99837.20
2022-11-04T15:16:05.491Z,99843.37
2022-11-04T15:18:32.206Z,99841.14
2022-11-04T15:21:03.214Z,99846.45
2022-11-04T15:23:34.438Z,99844.89
2022-11-04T15:26:03.130Z,99849.71
2022-11-04T15:28:34.194Z,99841.34
2022-11-04T15:31:08.265Z,99846.91
2022-11-04T15:33:41.123Z,99846.42
2022-11-04T15:36:14.402Z,99848.05
2022-11-04T15:38:47.130Z,99848.91
2022-11-04T15:41:38.309Z,99849.88
2022-11-04T15:44:14.579Z,99849.16
2022-11-04T15:46:47.660Z,99851.02
2022-11-04T15:49:21.909Z,99856.23
2022-11-04T15:51:48.679Z,99863.42
2022-11-04T15:54:23.092Z,99867.40
2022-11-04T15:56:54.768Z,99870.97
2022-11-04T15:59:36.717Z,99870.35
2022-11-04T16:02:06.539Z,99869.74
2022-11-04T16:04:33.271Z,99869.26
2022-11-04T16:07:30.228Z,99872.30
2022-11-04T16:09:56.685Z,99871.14
2022-11-04T16:12:23.036Z,99867.98
2022-11-04T16:14:51.506Z,99864.24
2022-11-04T16:17:19.629Z,99867.25
2022-11-04T16:19:48.806Z,99867.82
2022-11-04T16:22:32.730Z,99868.90
2022-11-04T16:25:02.523Z,99873.25
2022-11-04T16:27:32.239Z,99871.40
2022-11-04T16:30:05.379Z,99874.83
2022-11-04T16:32:50.046Z,99878.57
2022-11-04T16:35:25.852Z,99875.41
2022-11-04T16:37:53.871Z,99877.36
2022-11-04T16:40:22.320Z,99878.83
2022-11-04T16:42:50.090Z,99881.02
2022-11-04T16:45:23.277Z,99887.02
2022-11-04T16:47:49.873Z,99885.39
2022-11-04T16:50:17.133Z,99881.02
2022-11-04T16:52:44.407Z,99881.02
2022-11-04T16:55:12.763Z,99883.25
2022-11-04T16:57:39.794Z,99879.73
2022-11-04T17:00:07.521Z,99881.34
2022-11-04T17:02:40.433Z,99878.46
2022-11-04T17:05:08.064Z,99875.29
2022-11-04T17:07:52.038Z,99864.59
2022-11-04T17:10:24.329Z,99858.64
2022-11-04T17:12:50.752Z,99856.89
2022-11-04T17:15:17.839Z,99854.20
2022-11-04T17:17:44.866Z,99853.27
2022-11-04T17:20:14.337Z,99852.01
2022-11-04T17:22:41.183Z,99853.37
2022-11-04T17:25:15.595Z,99856.02
2022-11-04T17:27:41.986Z,99858.48
2022-11-04T17:30:08.570Z,99856.23
2022-11-04T17:32:35.005Z,99854.83
2022-11-04T17:35:01.451Z,99853.62
2022-11-04T17:37:27.875Z,99855.24
2022-11-04T17:39:54.834Z,99851.19
2022-11-04T17:42:40.114Z,99856.61
2022-11-04T17:45:06.974Z,99848.61
2022-11-04T17:47:37.598Z,99849.31
2022-11-04T17:50:07.341Z,99845.60
2022-11-04T17:52:35.198Z,99845.50
2022-11-04T17:55:02.367Z,99844.42
2022-11-04T17:57:29.009Z,99844.63
2022-11-04T17:59:55.416Z,99843.46
2022-11-04T18:02:22.017Z,99845.20
2022-11-04T18:04:48.554Z,99850.15
2022-11-04T18:07:15.327Z,99853.73
2022-11-04T18:09:42.414Z,99853.62
2022-11-04T18:12:27.410Z,99857.43
2022-11-04T18:14:53.895Z,99861.88
2022-11-04T18:17:24.033Z,99864.64
2022-11-04T18:19:53.513Z,99865.86
2022-11-04T18:22:19.959Z,99863.77
2022-11-04T18:24:47.294Z,99859.20
2022-11-04T18:27:14.543Z,99852.17
2022-11-04T18:29:40.993Z,99853.09
2022-11-04T18:32:07.467Z,99850.06
2022-11-04T18:34:34.017Z,99848.63
2022-11-04T18:37:00.545Z,99845.14
2022-11-04T18:39:27.078Z,99836.69
2022-11-04T18:41:53.465Z,99840.21
2022-11-04T18:44:21.764Z,99841.97
2022-11-04T18:46:49.184Z,99844.55
2022-11-04T18:49:16.818Z,99848.20
2022-11-04T18:51:43.588Z,99848.83
2022-11-04T18:54:11.308Z,99843.27
2022-11-04T18:56:38.466Z,99841.98
2022-11-04T18:59:08.763Z,99843.77
2022-11-04T19:01:35.362Z,99845.59
2022-11-04T19:04:01.932Z,99851.05
2022-11-04T19:06:34.237Z,99847.08
2022-11-04T19:09:32.129Z,99846.94
2022-11-04T19:12:15.042Z,99848.33
2022-11-04T19:14:41.673Z,99848.91
2022-11-04T19:17:08.289Z,99848.93
2022-11-04T19:19:34.950Z,99849.95
2022-11-04T19:22:01.488Z,99852.40
2022-11-04T19:24:28.049Z,99856.79
2022-11-04T19:26:54.849Z,99859.60
2022-11-04T19:29:21.354Z,99858.89
2022-11-04T19:31:48.256Z,99853.02
2022-11-04T19:34:14.859Z,99854.06
2022-11-04T19:36:41.376Z,99848.02
2022-11-04T19:39:08.301Z,99841.09
2022-11-04T19:41:53.580Z,99845.79
2022-11-04T19:44:21.157Z,99846.73
2022-11-04T19:46:48.761Z,99846.27
2022-11-04T19:49:16.330Z,99855.98
2022-11-04T19:51:43.499Z,99859.15
2022-11-04T19:54:12.265Z,99859.96
2022-11-04T19:56:39.167Z,99851.38
2022-11-04T19:59:07.103Z,99853.36
2022-11-04T20:01:35.139Z,99857.95
2022-11-04T20:04:03.232Z,99855.93
2022-11-04T20:06:31.449Z,99862.43
2022-11-04T20:09:01.275Z,99864.04
2022-11-04T20:11:27.784Z,99863.62
2022-11-04T20:13:54.442Z,99872.34
2022-11-04T20:16:22.807Z,99873.72
2022-11-04T20:18:51.799Z,99873.60
2022-11-04T20:21:20.392Z,99885.61
2022-11-04T20:23:47.098Z,99895.77
2022-11-04T20:26:23.405Z,99906.00
2022-11-04T20:28:55.677Z,99910.95
2022-11-04T20:31:24.241Z,99915.73
2022-11-04T20:33:51.997Z,99914.38
2022-11-04T20:36:21.637Z,99915.64
2022-11-04T20:38:48.236Z,99913.21
2022-11-04T20:41:19.041Z,99912.96
2022-11-04T20:43:47.897Z,99917.08
2022-11-04T20:46:17.084Z,99915.84
2022-11-04T20:48:43.645Z,99916.09
2022-11-04T20:51:13.823Z,99920.06
2022-11-04T20:53:41.399Z,99917.23
2022-11-04T20:56:10.160Z,99923.63
2022-11-04T20:58:38.625Z,99922.58
2022-11-04T21:01:08.783Z,99920.62
2022-11-04T21:03:35.360Z,99918.66
2022-11-04T21:06:01.947Z,99912.38
2022-11-04T21:08:28.359Z,99912.55
2022-11-04T21:10:55.987Z,99916.27
2022-11-04T21:13:22.541Z,99916.65
2022-11-04T21:15:53.825Z,99915.51
2022-11-04T21:18:21.773Z,99910.95
2022-11-04T21:20:49.050Z,99915.00
2022-11-04T21:23:17.048Z,99914.56
2022-11-04T21:26:20.645Z,99914.34
2022-11-04T21:28:48.652Z,99912.48
2022-11-04T21:31:15.050Z,99914.17
2022-11-04T21:33:41.651Z,99914.81
2022-11-04T21:36:11.349Z,99913.64
2022-11-04T21:38:39.051Z,99912.69
2022-11-04T21:41:08.951Z,99911.42
2022-11-04T21:43:35.404Z,99915.03
2022-11-04T21:46:04.939Z,99921.27
2022-11-04T21:48:32.446Z,99919.80
2022-11-04T21:51:04.213Z,99916.10
2022-11-04T21:53:31.229Z,99911.52
2022-11-04T21:56:10.925Z,99906.71
2022-11-04T21:58:37.824Z,99900.69
2022-11-04T22:01:06.502Z,99897.90
2022-11-04T22:03:33.506Z,99902.61
2022-11-04T22:06:02.450Z,99904.06
2022-11-04T22:08:30.991Z,99905.52
2022-11-04T22:11:09.715Z,99908.92
2022-11-04T22:13:36.260Z,99912.38
2022-11-04T22:16:20.761Z,99911.05
2022-11-04T22:18:51.055Z,99912.79
2022-11-04T22:21:18.298Z,99912.58
2022-11-04T22:23:44.939Z,99909.36
2022-11-04T22:26:15.933Z,99911.27
2022-11-04T22:28:42.424Z,99911.98
2022-11-04T22:31:25.143Z,99914.71
2022-11-04T22:33:52.763Z,99911.08
2022-11-04T22:36:20.328Z,99904.14
2022-11-04T22:38:46.741Z,99900.93
2022-11-04T22:41:17.577Z,99902.36
2022-11-04T22:43:44.072Z,99907.91
2022-11-04T22:46:14.165Z,99909.71
2022-11-04T22:48:40.948Z,99909.02
2022-11-04T22:51:09.292Z,99912.08
2022-11-04T22:53:36.245Z,99918.63
2022-11-04T22:56:04.575Z,99914.27
2022-11-04T22:58:31.040Z,99914.75
2022-11-04T23:01:06.234Z,99910.83
2022-11-04T23:03:32.872Z,99907.98
2022-11-04T23:06:02.095Z,99900.41
2022-11-04T23:08:30.671Z,99899.26
2022-11-04T23:11:19.056Z,99897.04
2022-11-04T23:14:20.892Z,99897.84
2022-11-04T23:17:09.067Z,99896.13
2022-11-04T23:19:36.402Z,99894.36
2022-11-04T23:22:22.327Z,99894.23
2022-11-04T23:25:10.319Z,99892.79
2022-11-04T23:28:03.285Z,99896.58
2022-11-04T23:30:35.640Z,99906.29
2022-11-04T23:33:08.092Z,99905.89
2022-11-04T23:35:59.537Z,99910.48
2022-11-04T23:38:27.848Z,99913.94
2022-11-04T23:41:19.670Z,99909.35
2022-11-04T23:43:46.240Z,99914.38
2022-11-04T23:46:31.596Z,99916.38
2022-11-04T23:49:17.169Z,99918.22
2022-11-04T23:52:02.259Z,99923.47
2022-11-04T23:54:47.147Z,99921.51
2022-11-04T23:57:56.784Z,99918.11
